Time;durP1;ratioP1;P1;durP2;ratioP2;P2;SDS_P1;SDS_P2;PMS_P1;PMS_P2;Temp;Humidity;BMP_temperature;BMP_pressure;BME280_temperature;BME280_humidity;BME280_pressure;Samples;Min_cycle;Max_cycle;Signal;HPM_P1;HPM_P2
2021/11/25 00:00:23;;;;;;;53.85;26.77;;;;;;;6.38;89.06;101554.75;5036022;28;20071;-80
2021/11/25 00:02:49;;;;;;;50.20;25.98;;;;;;;6.39;89.21;101546.06;5040051;28;20155;-80
2021/11/25 00:05:14;;;;;;;56.38;27.90;;;;;;;6.40;89.40;101543.44;5040886;28;20045;-80
2021/11/25 00:07:40;;;;;;;55.55;27.55;;;;;;;6.39;89.33;101538.28;5024186;28;20033;-80
2021/11/25 00:10:06;;;;;;;50.00;27.45;;;;;;;6.39;89.36;101539.13;5041959;28;20341;-80
2021/11/25 00:12:32;;;;;;;52.75;25.73;;;;;;;6.38;89.01;101534.78;5040472;28;20336;-80
2021/11/25 00:14:57;;;;;;;56.80;26.65;;;;;;;6.38;89.09;101526.13;5041142;28;20041;-80
2021/11/25 00:17:23;;;;;;;51.15;26.13;;;;;;;6.38;88.99;101531.34;5041129;28;20402;-80
2021/11/25 00:19:48;;;;;;;55.78;27.67;;;;;;;6.38;89.08;101531.34;5024417;28;20029;-80
2021/11/25 00:22:14;;;;;;;55.72;26.27;;;;;;;6.37;88.96;101524.41;5040548;28;20110;-80
2021/11/25 00:24:39;;;;;;;51.97;26.42;;;;;;;6.36;89.03;101518.34;5039813;28;20030;-80
2021/11/25 00:27:05;;;;;;;49.80;25.73;;;;;;;6.38;89.16;101516.56;5020739;28;20042;-80
2021/11/25 00:29:30;;;;;;;55.15;26.52;;;;;;;6.39;89.02;101525.25;5036508;28;20329;-80
2021/11/25 00:31:56;;;;;;;51.80;26.48;;;;;;;6.37;88.84;101519.19;5021563;28;20083;-80
2021/11/25 00:34:21;;;;;;;49.90;24.73;;;;;;;6.36;88.91;101517.50;5023956;28;20056;-80
2021/11/25 00:36:47;;;;;;;47.25;23.85;;;;;;;6.33;88.59;101521.84;5040220;28;20033;-80
2021/11/25 00:39:12;;;;;;;46.38;25.98;;;;;;;6.33;88.56;101516.66;5040302;28;20368;-80
2021/11/25 00:41:37;;;;;;;53.60;25.38;;;;;;;6.34;88.57;101518.34;5041517;28;20041;-80
2021/11/25 00:44:03;;;;;;;46.45;26.05;;;;;;;6.34;88.53;101512.28;5035555;28;20040;-80
2021/11/25 00:46:29;;;;;;;48.20;25.10;;;;;;;6.35;88.78;101506.22;5041815;28;20122;-80
2021/11/25 00:48:54;;;;;;;57.22;26.05;;;;;;;6.34;88.96;101501.91;5023836;28;20083;-80
2021/11/25 00:51:19;;;;;;;47.67;25.52;;;;;;;6.34;88.91;101501.91;5040041;28;20246;-80
2021/11/25 00:53:45;;;;;;;49.08;24.98;;;;;;;6.32;88.42;101499.31;5041601;28;20037;-80
2021/11/25 00:56:10;;;;;;;52.78;25.35;;;;;;;6.33;88.14;101500.16;5022906;28;20041;-80
2021/11/25 00:58:36;;;;;;;53.35;25.80;;;;;;;6.31;87.41;101500.19;5041036;28;20038;-80
2021/11/25 01:01:01;;;;;;;51.75;24.77;;;;;;;6.32;88.03;101504.50;5041071;28;20214;-80
2021/11/25 01:03:27;;;;;;;47.95;25.65;;;;;;;6.32;88.06;101501.06;5023365;28;20033;-80
2021/11/25 01:05:52;;;;;;;52.88;24.45;;;;;;;6.31;88.27;101507.13;5023464;28;20057;-80
2021/11/25 01:08:18;;;;;;;56.50;27.27;;;;;;;6.31;88.56;101502.81;5040285;28;20037;-80
2021/11/25 01:10:44;;;;;;;53.72;26.60;;;;;;;6.31;88.57;101504.53;5039903;28;20052;-80
2021/11/25 01:13:10;;;;;;;55.38;26.95;;;;;;;6.31;88.66;101504.53;5038694;28;20049;-80
2021/11/25 01:15:36;;;;;;;55.10;27.42;;;;;;;6.30;88.20;101495.88;5038872;28;20309;-80
2021/11/25 01:18:06;;;;;;;58.22;26.95;;;;;;;6.31;88.71;101491.50;5023047;28;20041;-80
2021/11/25 01:20:32;;;;;;;57.08;27.95;;;;;;;6.29;88.10;101493.28;5023209;28;20037;-80
2021/11/25 01:22:58;;;;;;;54.53;26.85;;;;;;;6.27;88.13;101493.28;5040038;28;20051;-80
2021/11/25 01:25:23;;;;;;;56.05;28.05;;;;;;;6.26;88.37;101488.13;5039329;28;20072;-80
2021/11/25 01:27:49;;;;;;;59.83;28.70;;;;;;;6.26;88.15;101494.19;5039732;28;20033;-80
2021/11/25 01:30:14;;;;;;;61.97;27.92;;;;;;;6.27;88.29;101490.69;5040590;28;20053;-80
2021/11/25 01:32:40;;;;;;;55.08;27.38;;;;;;;6.27;88.47;101489.84;5039285;28;20044;-80
2021/11/25 01:35:06;;;;;;;60.38;30.23;;;;;;;6.29;88.52;101490.69;5045949;28;20033;-80
2021/11/25 01:37:31;;;;;;;56.28;28.52;;;;;;;6.28;88.66;101492.44;5039365;28;20045;-80
2021/11/25 01:39:56;;;;;;;55.10;27.27;;;;;;;6.28;88.31;101497.63;5039136;28;20033;-80
2021/11/25 01:42:22;;;;;;;67.30;31.63;;;;;;;6.29;88.61;101501.09;5055509;28;20040;-80
2021/11/25 01:44:48;;;;;;;58.47;28.67;;;;;;;6.29;88.49;101493.28;5006418;28;20056;-80
2021/11/25 01:47:13;;;;;;;64.93;29.67;;;;;;;6.29;88.80;101488.06;5040519;28;20337;-80
2021/11/25 01:49:39;;;;;;;64.50;29.88;;;;;;;6.28;88.49;101484.63;5038929;28;20021;-80
2021/11/25 01:52:04;;;;;;;63.83;29.90;;;;;;;6.28;88.68;101475.97;5040743;28;20037;-80
2021/11/25 01:54:29;;;;;;;69.28;29.42;;;;;;;6.28;88.62;101468.16;5039223;28;20063;-80
2021/11/25 01:56:56;;;;;;;67.88;30.83;;;;;;;6.29;88.75;101472.47;5038598;28;20044;-80
2021/11/25 01:59:21;;;;;;;63.50;29.33;;;;;;;6.28;88.90;101469.00;5022516;28;20041;-80
2021/11/25 02:04:38;;;;;;;63.42;29.85;;;;;;;6.30;89.18;101458.59;5029301;28;20107;-80
2021/11/25 02:07:04;;;;;;;70.18;31.95;;;;;;;6.29;89.20;101452.53;5061061;28;20277;-80
2021/11/25 02:09:29;;;;;;;62.65;30.80;;;;;;;6.30;89.25;101459.44;5042137;28;20087;-80
2021/11/25 02:11:55;;;;;;;73.38;31.33;;;;;;;6.30;89.01;101461.19;5042450;28;20275;-80
2021/11/25 02:14:20;;;;;;;68.03;30.65;;;;;;;6.29;89.18;101455.16;5042570;28;20032;-80
2021/11/25 02:16:49;;;;;;;69.35;31.38;;;;;;;6.29;89.14;101454.25;5060273;28;20048;-80
2021/11/25 02:19:15;;;;;;;68.15;29.90;;;;;;;6.29;89.24;101451.66;5042367;28;20033;-80
2021/11/25 02:21:40;;;;;;;63.20;30.42;;;;;;;6.29;89.00;101441.25;5045973;28;20047;-80
2021/11/25 02:24:06;;;;;;;64.30;29.05;;;;;;;6.27;88.97;101438.66;5060209;28;20041;-80
2021/11/25 02:26:31;;;;;;;56.83;29.20;;;;;;;6.27;88.70;101435.22;5041924;28;20048;-80
2021/11/25 02:28:57;;;;;;;68.93;30.90;;;;;;;6.27;88.85;101432.63;5042255;28;20025;-80
2021/11/25 02:31:22;;;;;;;61.95;30.45;;;;;;;6.27;88.96;101427.41;5042108;28;20037;-80
2021/11/25 02:33:48;;;;;;;65.78;30.67;;;;;;;6.26;88.92;101426.56;5059778;28;20041;-80
2021/11/25 02:36:13;;;;;;;65.20;29.50;;;;;;;6.25;88.46;101429.19;5058968;28;20067;-80
2021/11/25 02:38:38;;;;;;;62.63;30.42;;;;;;;6.24;88.55;101432.66;5059560;28;20040;-80
2021/11/25 02:41:04;;;;;;;56.72;27.83;;;;;;;6.23;88.84;101433.53;5041589;28;20056;-80
2021/11/25 02:43:30;;;;;;;65.63;30.00;;;;;;;6.23;88.83;101428.34;5024990;28;20037;-80
2021/11/25 02:45:58;;;;;;;62.92;29.30;;;;;;;6.22;88.99;101417.09;5041935;28;20041;-80
2021/11/25 02:48:26;;;;;;;66.53;29.43;;;;;;;6.22;89.10;101418.81;5059359;28;20036;-80
2021/11/25 02:50:52;;;;;;;65.28;29.63;;;;;;;6.21;89.11;101412.75;5041517;28;20340;-80
2021/11/25 02:53:19;;;;;;;59.42;29.75;;;;;;;6.19;89.23;101409.31;5041339;28;20107;-80
2021/11/25 02:55:45;;;;;;;60.28;30.35;;;;;;;6.20;89.24;101412.75;5025384;28;20055;-80
2021/11/25 02:58:10;;;;;;;67.57;30.75;;;;;;;6.18;89.34;101410.19;5041499;28;20435;-80
2021/11/25 03:00:37;;;;;;;61.63;28.73;;;;;;;6.18;89.32;101411.94;5040811;28;20036;-80
2021/11/25 03:03:05;;;;;;;53.33;27.02;;;;;;;6.17;89.45;101411.06;5041646;28;20040;-80
2021/11/25 03:05:31;;;;;;;71.05;30.33;;;;;;;6.18;89.60;101415.38;5021117;28;20113;-80
2021/11/25 03:08:00;;;;;;;67.60;31.77;;;;;;;6.17;89.86;101408.47;5010745;28;20501;-80
2021/11/25 03:10:25;;;;;;;61.58;29.13;;;;;;;6.17;89.84;101403.28;5021013;28;20260;-80
2021/11/25 03:12:51;;;;;;;64.50;29.60;;;;;;;6.16;89.57;101401.53;5021101;28;20033;-80
2021/11/25 03:15:16;;;;;;;61.70;29.77;;;;;;;6.14;89.63;101401.56;5037519;28;20041;-80
2021/11/25 03:17:42;;;;;;;62.13;28.30;;;;;;;6.15;89.82;101407.63;5040801;28;20325;-80
2021/11/25 03:20:07;;;;;;;57.63;27.85;;;;;;;6.13;89.85;101397.25;5037916;28;20064;-80
2021/11/25 03:22:33;;;;;;;60.15;29.88;;;;;;;6.14;89.87;101398.09;5037168;28;20041;-80
2021/11/25 03:24:58;;;;;;;63.75;30.52;;;;;;;6.12;89.84;101405.91;5037965;28;20045;-80
2021/11/25 03:27:24;;;;;;;65.85;30.25;;;;;;;6.11;90.10;101399.00;5037109;28;20052;-80
2021/11/25 03:29:49;;;;;;;59.85;29.70;;;;;;;6.12;90.05;101389.47;5038587;28;20033;-80
2021/11/25 03:32:15;;;;;;;63.08;29.98;;;;;;;6.11;90.07;101390.34;5038546;28;20379;-80
2021/11/25 03:34:40;;;;;;;61.28;29.33;;;;;;;6.09;89.76;101382.59;5020965;28;20077;-80
2021/11/25 03:37:07;;;;;;;63.90;30.77;;;;;;;6.10;89.87;101391.22;5036639;28;20041;-81
2021/11/25 03:39:33;;;;;;;60.45;28.92;;;;;;;6.09;89.96;101389.50;5040052;28;20045;-83
2021/11/25 03:41:58;;;;;;;64.93;29.42;;;;;;;6.08;90.07;101393.84;5039462;28;20029;-83
2021/11/25 03:44:24;;;;;;;60.75;29.25;;;;;;;6.07;90.01;101378.25;5039155;28;20049;-83
2021/11/25 03:46:49;;;;;;;69.80;30.73;;;;;;;6.06;90.08;101382.59;5038842;28;20221;-83
2021/11/25 03:49:14;;;;;;;64.40;28.80;;;;;;;6.07;90.03;101383.47;5039741;28;20458;-83
2021/11/25 03:51:40;;;;;;;71.03;29.60;;;;;;;6.07;90.20;101380.88;5040412;28;20151;-83
2021/11/25 03:54:06;;;;;;;65.65;29.25;;;;;;;6.06;90.22;101384.34;5006648;28;20025;-83
2021/11/25 03:56:31;;;;;;;72.53;31.13;;;;;;;6.06;90.03;101376.56;5040844;28;20045;-83
2021/11/25 03:58:56;;;;;;;67.78;31.98;;;;;;;6.06;90.14;101368.75;5055598;28;20037;-83
2021/11/25 04:01:23;;;;;;;68.63;31.58;;;;;;;6.04;90.14;101368.78;5038856;28;20021;-83
2021/11/25 04:03:48;;;;;;;70.60;32.50;;;;;;;6.03;90.00;101361.84;5039149;28;20037;-83
2021/11/25 04:06:14;;;;;;;72.97;33.00;;;;;;;6.03;90.23;101359.25;5039427;28;20037;-83
2021/11/25 04:08:39;;;;;;;67.32;30.90;;;;;;;6.02;90.18;101354.94;5039966;28;20030;-83
2021/11/25 04:11:06;;;;;;;71.30;32.28;;;;;;;6.02;90.27;101359.25;5038916;28;20052;-82
2021/11/25 04:13:32;;;;;;;78.63;33.05;;;;;;;6.02;90.47;101348.84;5040202;28;20053;-82
2021/11/25 04:15:57;;;;;;;65.82;29.25;;;;;;;6.01;90.38;101352.34;5023068;28;20029;-82
2021/11/25 04:18:23;;;;;;;67.13;30.88;;;;;;;6.01;90.47;101354.94;5022263;28;20117;-82
2021/11/25 04:20:48;;;;;;;68.10;31.58;;;;;;;6.00;90.38;101345.41;5039092;28;20045;-82
2021/11/25 04:23:14;;;;;;;65.55;30.73;;;;;;;6.00;90.68;101350.63;5038550;28;20103;-82
2021/11/25 04:25:39;;;;;;;67.40;31.15;;;;;;;5.99;90.83;101348.91;5039894;28;20041;-82
2021/11/25 04:28:05;;;;;;;66.38;30.05;;;;;;;5.99;90.82;101360.16;5022478;28;20045;-83
2021/11/25 04:35:48;;;;;;;64.85;30.95;;;;;;;5.99;90.63;101359.31;5039499;28;20249;-82
2021/11/25 04:38:16;;;;;;;62.97;28.30;;;;;;;5.98;90.67;101366.25;5038075;28;20065;-82
2021/11/25 04:40:46;;;;;;;72.57;32.55;;;;;;;5.98;90.72;101354.97;5055701;28;20352;-82
2021/11/25 04:43:11;;;;;;;72.82;32.08;;;;;;;5.96;90.69;101355.84;5023305;28;20055;-82
2021/11/25 04:45:38;;;;;;;75.15;31.88;;;;;;;5.97;90.65;101351.53;5039587;28;20100;-82
2021/11/25 04:48:03;;;;;;;70.05;32.28;;;;;;;5.97;90.72;101348.94;5023435;28;20333;-82
2021/11/25 04:50:29;;;;;;;67.53;32.08;;;;;;;5.95;90.83;101343.75;5042959;28;20031;-82
2021/11/25 04:52:54;;;;;;;73.03;32.80;;;;;;;5.95;90.90;101338.53;5043310;28;20268;-82
2021/11/25 04:55:20;;;;;;;74.80;32.30;;;;;;;5.95;90.65;101345.47;5026539;28;20052;-82
2021/11/25 04:57:45;;;;;;;69.13;31.60;;;;;;;5.93;90.77;101340.28;5058651;28;20033;-82
2021/11/25 05:00:11;;;;;;;68.95;31.58;;;;;;;5.93;90.94;101334.19;5044142;28;20044;-82
2021/11/25 05:02:36;;;;;;;68.10;32.10;;;;;;;5.90;90.55;101335.13;5059490;28;20047;-82
2021/11/25 05:05:03;;;;;;;73.05;32.30;;;;;;;5.92;90.74;101335.94;5046135;28;20057;-82
2021/11/25 05:07:29;;;;;;;70.72;32.28;;;;;;;5.90;90.84;101329.06;5045743;28;20048;-82
2021/11/25 05:09:54;;;;;;;72.78;31.60;;;;;;;5.90;90.92;101327.31;5063818;28;20016;-82
2021/11/25 05:12:20;;;;;;;75.60;33.15;;;;;;;5.89;90.95;101320.38;5078791;28;20217;-82
2021/11/25 05:14:45;;;;;;;79.68;33.78;;;;;;;5.90;90.92;101327.31;5061532;28;20100;-82
2021/11/25 05:17:10;;;;;;;73.75;33.10;;;;;;;5.90;91.02;101322.13;5045794;28;20037;-82
2021/11/25 05:19:36;;;;;;;80.85;33.92;;;;;;;5.90;90.96;101327.31;5062794;28;20099;-82
2021/11/25 05:22:02;;;;;;;73.75;32.78;;;;;;;5.89;90.90;101325.59;5063663;28;20103;-82
2021/11/25 05:24:27;;;;;;;71.97;32.17;;;;;;;5.90;90.99;101324.72;5045417;28;20374;-82
2021/11/25 05:26:53;;;;;;;66.38;30.25;;;;;;;5.89;90.91;101325.59;5059619;28;20071;-82
2021/11/25 05:29:21;;;;;;;83.13;33.70;;;;;;;5.92;91.10;101327.31;5045168;28;20263;-82
2021/11/25 05:31:46;;;;;;;67.80;31.17;;;;;;;5.96;91.21;101324.66;5045951;28;20037;-82
2021/11/25 05:34:12;;;;;;;70.50;31.55;;;;;;;6.02;91.59;101321.13;5012360;28;20148;-82
2021/11/25 05:36:37;;;;;;;77.65;32.75;;;;;;;6.10;91.88;101318.41;5025000;28;20438;-82
2021/11/25 05:39:03;;;;;;;78.68;33.42;;;;;;;6.14;92.03;101317.47;5028687;28;20082;-82
2021/11/25 05:41:28;;;;;;;77.28;32.45;;;;;;;6.12;92.08;101335.72;5063491;28;20067;-83
2021/11/25 05:43:54;;;;;;;76.82;33.38;;;;;;;6.09;91.66;101327.09;5056536;28;20039;-82
2021/11/25 05:46:19;;;;;;;79.60;33.28;;;;;;;6.08;91.40;101333.19;5063302;28;20029;-82
2021/11/25 05:48:44;;;;;;;66.82;31.85;;;;;;;6.07;91.52;101331.44;5062577;28;20036;-82
2021/11/25 05:51:10;;;;;;;78.25;33.33;;;;;;;6.05;91.36;101326.28;5045114;28;20379;-82
2021/11/25 05:53:35;;;;;;;67.45;31.70;;;;;;;6.06;91.25;101334.94;5044760;28;20021;-82
2021/11/25 05:56:01;;;;;;;70.55;31.00;;;;;;;6.03;91.25;101330.63;5078196;28;20041;-82
2021/11/25 05:58:26;;;;;;;69.93;30.40;;;;;;;6.03;91.09;101329.78;5062401;28;20049;-82
2021/11/25 06:00:51;;;;;;;69.93;32.25;;;;;;;6.03;91.20;101329.78;5061525;28;20037;-82
2021/11/25 06:03:17;;;;;;;73.47;32.38;;;;;;;6.00;91.06;101333.28;5062761;28;20033;-82
2021/11/25 06:05:42;;;;;;;77.60;33.50;;;;;;;6.00;91.19;101332.41;5044527;28;20082;-82
2021/11/25 06:08:08;;;;;;;77.38;33.90;;;;;;;6.00;91.31;101330.66;5024653;28;20280;-82
2021/11/25 06:10:33;;;;;;;78.15;32.67;;;;;;;5.99;91.30;101317.72;5044827;28;20047;-82
2021/11/25 06:12:59;;;;;;;77.15;31.48;;;;;;;5.99;91.29;101323.78;5044596;28;20048;-83
2021/11/25 06:15:25;;;;;;;67.28;29.98;;;;;;;5.99;91.20;101309.91;5028065;28;20051;-82
2021/11/25 06:17:51;;;;;;;71.60;32.20;;;;;;;5.99;91.45;101315.97;5028444;28;20037;-82
2021/11/25 06:20:16;;;;;;;71.07;32.55;;;;;;;5.99;91.50;101302.97;5044041;28;20044;-83
2021/11/25 06:22:43;;;;;;;83.22;33.63;;;;;;;6.00;91.32;101306.41;5023599;28;20029;-83
2021/11/25 06:25:10;;;;;;;73.75;32.50;;;;;;;5.99;91.40;101302.97;5006151;28;20051;-82
2021/11/25 06:27:36;;;;;;;67.53;30.08;;;;;;;5.98;91.40;101300.38;5027819;28;20036;-82
2021/11/25 06:30:03;;;;;;;79.20;32.53;;;;;;;5.98;91.42;101297.78;5027481;28;20214;-83
2021/11/25 06:32:29;;;;;;;75.45;32.80;;;;;;;5.98;91.47;101303.84;5044048;28;20270;-83
2021/11/25 06:34:54;;;;;;;72.30;30.67;;;;;;;5.99;91.28;101305.56;5043603;28;20104;-83
2021/11/25 06:37:19;;;;;;;75.00;32.05;;;;;;;5.99;91.58;101296.91;5044133;28;20036;-83
2021/11/25 06:39:45;;;;;;;73.00;32.35;;;;;;;5.98;91.54;101305.59;5043381;28;20033;-83
2021/11/25 06:42:10;;;;;;;72.18;33.10;;;;;;;6.00;91.65;101296.03;5044872;28;20043;-83
2021/11/25 06:44:36;;;;;;;73.68;31.90;;;;;;;6.00;91.53;101294.28;5057225;28;20098;-82
2021/11/25 06:47:01;;;;;;;81.85;32.78;;;;;;;6.00;91.65;101294.28;5060705;28;20336;-83
2021/11/25 06:49:27;;;;;;;72.28;30.90;;;;;;;6.00;91.61;101296.88;5061964;28;20044;-83
2021/11/25 06:51:52;;;;;;;71.32;31.27;;;;;;;6.00;91.54;101294.28;5044272;28;20394;-82
2021/11/25 06:54:18;;;;;;;73.75;32.67;;;;;;;6.01;91.59;101296.00;5027312;28;20266;-83
2021/11/25 06:56:43;;;;;;;74.68;31.77;;;;;;;6.02;91.57;101289.94;5027146;28;20067;-83
2021/11/25 06:59:09;;;;;;;67.68;30.20;;;;;;;6.02;91.65;101289.06;5061643;28;20047;-83
2021/11/25 07:01:34;;;;;;;75.13;32.28;;;;;;;6.02;91.56;101294.25;5060560;28;20029;-83
2021/11/25 07:04:00;;;;;;;67.20;30.05;;;;;;;6.01;91.53;101300.34;5060105;28;20040;-83
2021/11/25 07:06:25;;;;;;;71.70;31.75;;;;;;;6.01;91.46;101302.94;5042659;28;20098;-83
2021/11/25 07:08:50;;;;;;;70.10;31.17;;;;;;;6.01;91.59;101300.34;5027404;28;20036;-83
2021/11/25 07:11:16;;;;;;;72.00;29.88;;;;;;;6.02;91.60;101302.06;5061196;28;20092;-83
2021/11/25 07:13:41;;;;;;;66.75;29.95;;;;;;;6.01;91.56;101296.00;5042358;28;20078;-83
2021/11/25 07:16:07;;;;;;;70.60;30.17;;;;;;;6.02;91.78;101291.66;5025849;28;20029;-83
2021/11/25 07:18:33;;;;;;;65.10;28.75;;;;;;;6.04;91.67;101297.69;5043397;28;20037;-83
2021/11/25 07:20:59;;;;;;;69.65;30.25;;;;;;;6.04;91.83;101306.38;5043469;28;20078;-83
2021/11/25 07:23:25;;;;;;;74.32;30.85;;;;;;;6.04;91.88;101293.38;5043521;28;20041;-83
2021/11/25 07:25:50;;;;;;;76.03;31.67;;;;;;;6.06;91.74;101298.56;5038873;28;20056;-83
2021/11/25 07:28:16;;;;;;;68.15;30.73;;;;;;;6.06;91.88;101301.16;5043524;28;20251;-83
2021/11/25 07:30:41;;;;;;;67.40;28.23;;;;;;;6.07;91.77;101292.44;5026438;28;20044;-83
2021/11/25 07:33:07;;;;;;;67.20;29.15;;;;;;;6.07;91.87;101293.31;5040446;28;20029;-83
2021/11/25 07:35:32;;;;;;;69.55;29.30;;;;;;;6.07;91.95;101290.69;5033739;28;20071;-83
2021/11/25 07:37:59;;;;;;;65.85;29.92;;;;;;;6.07;91.78;101293.31;5033886;28;20237;-83
2021/11/25 07:40:24;;;;;;;62.55;28.48;;;;;;;6.08;91.97;101300.22;5022359;28;20056;-83
2021/11/25 07:42:52;;;;;;;67.43;27.20;;;;;;;6.08;91.96;101305.44;5058120;28;20555;-83
2021/11/25 07:45:17;;;;;;;62.70;27.10;;;;;;;6.09;91.87;101296.75;5041783;28;20108;-83
2021/11/25 07:47:43;;;;;;;68.93;29.30;;;;;;;6.12;92.16;101298.44;5023343;28;20040;-83
2021/11/25 07:50:15;;;;;;;64.47;26.75;;;;;;;6.13;92.06;101302.75;5024530;28;20049;-83
2021/11/25 07:52:40;;;;;;;59.92;25.88;;;;;;;6.14;92.12;101304.47;5057218;28;20083;-83
2021/11/25 07:55:07;;;;;;;63.13;25.50;;;;;;;6.16;92.08;101305.31;5009711;28;20040;-83
2021/11/25 07:57:32;;;;;;;58.60;25.65;;;;;;;6.17;92.05;101296.66;5028659;28;20356;-83
2021/11/25 07:59:58;;;;;;;59.70;25.13;;;;;;;6.17;92.00;101299.25;5040850;28;20041;-83
2021/11/25 08:02:23;;;;;;;47.85;22.83;;;;;;;6.18;92.20;101308.75;5059203;28;20445;-83
2021/11/25 08:04:49;;;;;;;49.00;21.17;;;;;;;6.19;92.23;101309.63;5018488;28;20040;-83
2021/11/25 08:07:14;;;;;;;42.88;20.30;;;;;;;6.20;92.25;101308.72;5058723;28;20043;-84
2021/11/25 08:09:40;;;;;;;50.75;22.20;;;;;;;6.21;92.30;101311.31;5057688;28;20051;-83
2021/11/25 08:12:06;;;;;;;45.08;20.48;;;;;;;6.25;92.38;101319.94;5032839;28;20041;-83
2021/11/25 08:14:31;;;;;;;42.33;19.15;;;;;;;6.34;92.60;101318.03;5002807;28;20208;-83
2021/11/25 08:16:59;;;;;;;49.20;22.48;;;;;;;6.43;92.89;101318.78;5052306;28;20174;-83
2021/11/25 08:19:25;;;;;;;53.05;22.50;;;;;;;6.45;93.09;101315.25;5040246;28;20105;-83
2021/11/25 08:21:51;;;;;;;46.47;20.92;;;;;;;6.47;93.36;101317.84;5024259;28;20071;-83
2021/11/25 08:24:16;;;;;;;43.08;20.42;;;;;;;6.45;93.18;101323.06;5056911;28;20322;-83
2021/11/25 08:26:41;;;;;;;47.45;21.52;;;;;;;6.44;93.08;101323.09;5061423;28;20055;-83
2021/11/25 08:29:07;;;;;;;45.17;21.48;;;;;;;6.43;93.01;101311.84;5062665;28;20068;-83
2021/11/25 08:31:32;;;;;;;44.03;20.38;;;;;;;6.41;93.01;101313.59;5028161;28;20101;-83
2021/11/25 08:33:58;;;;;;;42.92;20.30;;;;;;;6.42;92.86;101312.75;5023642;28;20040;-83
2021/11/25 08:36:23;;;;;;;45.35;20.42;;;;;;;6.43;93.03;101326.59;5062113;28;20044;-83
2021/11/25 08:38:49;;;;;;;43.10;19.77;;;;;;;6.43;92.80;101330.03;5044619;28;20100;-83
2021/11/25 08:41:14;;;;;;;45.08;20.70;;;;;;;6.43;93.03;101324.00;5065233;28;20056;-83
2021/11/25 08:43:40;;;;;;;43.28;19.67;;;;;;;6.43;93.06;101321.38;5039302;28;20111;-83
2021/11/25 08:46:05;;;;;;;38.72;18.63;;;;;;;6.44;92.89;101325.69;5054630;28;20740;-83
2021/11/25 08:48:31;;;;;;;35.20;17.70;;;;;;;6.45;93.00;101322.22;5038719;28;20067;-83
2021/11/25 08:50:57;;;;;;;44.10;18.85;;;;;;;6.44;92.88;101321.38;5063368;28;20051;-84
2021/11/25 08:53:23;;;;;;;39.15;18.95;;;;;;;6.47;92.99;101323.06;5039769;28;20047;-83
2021/11/25 08:55:49;;;;;;;42.80;19.55;;;;;;;6.48;93.16;101322.19;5061291;28;20253;-83
2021/11/25 08:58:15;;;;;;;40.88;19.55;;;;;;;6.53;93.22;101322.94;5044265;28;20040;-83
2021/11/25 09:00:40;;;;;;;35.25;15.00;;;;;;;6.64;93.45;101333.19;5019567;28;20337;-83
2021/11/25 09:03:05;;;;;;;32.80;14.23;;;;;;;6.77;93.57;101320.81;5040146;28;20041;-83
2021/11/25 09:05:32;;;;;;;26.77;12.88;;;;;;;6.87;93.84;101320.63;5040667;28;20090;-83
2021/11/25 09:07:58;;;;;;;25.35;10.85;;;;;;;6.95;93.96;101332.66;5061010;28;20029;-83
2021/11/25 09:10:24;;;;;;;25.75;10.00;;;;;;;7.06;94.17;101321.19;5023831;28;20071;-82
2021/11/25 09:12:51;;;;;;;23.38;9.70;;;;;;;7.09;94.46;101328.94;5039974;28;20390;-83
2021/11/25 09:15:16;;;;;;;29.08;11.38;;;;;;;7.08;94.55;101334.19;5036673;28;20033;-83
2021/11/25 09:17:41;;;;;;;23.77;10.13;;;;;;;7.10;94.81;101332.41;5038700;28;20040;-83
2021/11/25 09:20:07;;;;;;;21.73;8.95;;;;;;;7.13;94.96;101326.25;5038977;28;20036;-83
2021/11/25 09:22:33;;;;;;;20.92;8.23;;;;;;;7.16;95.13;101326.22;5025217;28;20365;-83
2021/11/25 09:24:58;;;;;;;19.48;7.13;;;;;;;7.15;95.21;101329.69;5040802;28;20040;-83
2021/11/25 09:27:24;;;;;;;18.65;7.70;;;;;;;7.14;95.43;101331.44;5042429;28;20039;-83
2021/11/25 09:29:49;;;;;;;20.25;7.68;;;;;;;7.14;95.36;101331.44;5040924;28;20314;-83
2021/11/25 09:32:15;;;;;;;17.25;6.85;;;;;;;7.11;95.25;101331.50;5041402;28;20444;-83
2021/11/25 09:34:40;;;;;;;14.90;5.35;;;;;;;7.14;95.41;101349.69;5054384;28;20033;-83
2021/11/25 09:37:06;;;;;;;14.07;5.85;;;;;;;7.16;95.70;101352.25;5020145;28;20045;-83
2021/11/25 09:39:32;;;;;;;9.65;4.28;;;;;;;7.14;95.52;101354.88;5040129;28;20082;-83
2021/11/25 09:41:58;;;;;;;14.48;4.70;;;;;;;7.14;95.45;101341.88;5025693;28;20040;-83
2021/11/25 09:44:23;;;;;;;19.13;5.07;;;;;;;7.13;95.43;101345.38;5008994;28;20322;-83
2021/11/25 09:46:52;;;;;;;13.35;4.47;;;;;;;7.13;95.40;101344.50;5028667;28;20045;-83
2021/11/25 09:49:20;;;;;;;14.63;4.85;;;;;;;7.13;95.56;101339.28;5024076;28;20056;-83
2021/11/25 09:51:45;;;;;;;12.18;4.50;;;;;;;7.11;95.64;101339.31;5041076;28;20028;-83
2021/11/25 09:54:11;;;;;;;15.18;4.25;;;;;;;7.11;95.58;101334.97;5025083;28;20233;-83
2021/11/25 09:56:36;;;;;;;16.13;4.20;;;;;;;7.14;95.72;101341.03;5042334;28;20040;-83
2021/11/25 09:59:01;;;;;;;8.48;3.45;;;;;;;7.15;95.70;101340.13;5023210;28;20154;-83
2021/11/25 10:01:27;;;;;;;9.63;3.67;;;;;;;7.15;95.70;101342.72;5058441;28;20040;-83
2021/11/25 10:03:54;;;;;;;14.25;3.63;;;;;;;7.16;95.68;101339.25;5058964;28;20041;-83
2021/11/25 10:06:22;;;;;;;7.28;3.15;;;;;;;7.17;95.56;101343.53;5039509;28;20067;-83
2021/11/25 10:08:48;;;;;;;13.50;3.30;;;;;;;7.17;95.65;101343.53;5020128;28;20084;-83
2021/11/25 10:11:28;;;;;;;11.27;3.17;;;;;;;7.16;95.63;101334.03;5017526;28;20348;-82
2021/11/25 10:13:56;;;;;;;11.57;3.40;;;;;;;7.17;95.60;101338.34;5019084;28;20048;-83
2021/11/25 10:16:22;;;;;;;9.40;2.88;;;;;;;7.19;95.45;101345.25;5038199;28;20036;-83
2021/11/25 10:18:47;;;;;;;7.28;2.50;;;;;;;7.19;95.58;101342.66;5038869;28;20041;-83
2021/11/25 10:21:15;;;;;;;13.23;2.53;;;;;;;7.21;95.40;101346.06;5023488;28;20390;-83
2021/11/25 10:23:41;;;;;;;7.70;2.35;;;;;;;7.23;95.47;101339.09;5057680;28;20029;-83
2021/11/25 10:26:11;;;;;;;12.38;2.33;;;;;;;7.27;95.58;101347.72;5058426;28;20041;-83
2021/11/25 10:28:40;;;;;;;7.75;1.98;;;;;;;7.31;95.77;101351.97;5041419;28;20032;-83
2021/11/25 10:31:32;;;;;;;7.18;1.98;;;;;;;7.38;95.86;101353.56;5057233;28;20108;-83
2021/11/25 10:34:11;;;;;;;4.30;1.60;;;;;;;7.44;95.74;101355.19;5049174;28;20045;-83
2021/11/25 10:42:04;;;;;;;4.82;1.50;;;;;;;7.58;95.49;101357.53;5017497;28;20033;-83
2021/11/25 10:44:30;;;;;;;3.85;1.13;;;;;;;7.65;95.61;101341.75;5019453;28;20056;-82
2021/11/25 10:47:04;;;;;;;3.03;0.68;;;;;;;7.73;95.50;101354.63;5036850;28;20021;-84
2021/11/25 10:49:47;;;;;;;10.23;1.83;;;;;;;7.82;95.31;101356.19;5040454;28;20423;-83
2021/11/25 10:52:28;;;;;;;9.15;1.15;;;;;;;7.87;95.24;101349.13;5039077;28;20035;-82
2021/11/25 10:55:25;;;;;;;7.90;1.30;;;;;;;7.90;94.77;101348.22;5037287;28;20040;-83
2021/11/25 10:57:57;;;;;;;12.45;2.45;;;;;;;7.92;94.18;101349.03;5038460;28;20404;-82
2021/11/25 11:00:30;;;;;;;3.33;0.93;;;;;;;7.91;92.68;101355.13;5028314;28;20453;-83
2021/11/25 11:03:05;;;;;;;9.23;1.40;;;;;;;7.98;92.20;101351.50;5034801;28;20037;-82
2021/11/25 11:05:45;;;;;;;3.13;0.85;;;;;;;8.03;92.19;101354.88;5034138;28;20060;-83
2021/11/25 11:08:11;;;;;;;7.40;1.33;;;;;;;8.05;91.74;101350.47;5039305;28;20268;-83
2021/11/25 11:10:38;;;;;;;6.25;0.98;;;;;;;8.06;91.51;101354.81;5018715;28;20036;-83
2021/11/25 11:18:53;;;;;;;7.60;1.33;;;;;;;8.16;90.62;101353.69;5041691;28;20086;-83
2021/11/25 11:21:34;;;;;;;7.78;1.40;;;;;;;8.14;89.45;101347.66;5055021;28;20086;-82
2021/11/25 11:24:09;;;;;;;11.20;1.30;;;;;;;8.12;89.04;101352.06;5039632;28;20502;-82
2021/11/25 11:26:59;;;;;;;8.57;1.85;;;;;;;8.08;87.95;101355.63;5037167;28;20044;-83
2021/11/25 11:29:27;;;;;;;14.60;1.30;;;;;;;8.03;86.25;101347.03;5024233;28;20272;-83
2021/11/25 11:31:54;;;;;;;14.73;1.35;;;;;;;8.01;86.13;101343.63;5056601;28;20051;-82
2021/11/25 11:34:19;;;;;;;8.07;1.45;;;;;;;8.00;86.03;101347.09;5038777;28;20044;-82